sensor_id;sensor_type;location;lat;lon;timestamp;pressure;altitude;pressure_sealevel;temperature;humidity
29247;BME280;16272;48.188;9.964;2023-05-23T00:01:50;95596.75;;;13.70;78.35
29247;BME280;16272;48.188;9.964;2023-05-23T00:04:20;95595.41;;;13.97;76.67
29247;BME280;16272;48.188;9.964;2023-05-23T00:06:45;95601.75;;;13.96;77.28
29247;BME280;16272;48.188;9.964;2023-05-23T00:09:12;95590.41;;;13.71;77.78
29247;BME280;16272;48.188;9.964;2023-05-23T00:11:38;95598.13;;;13.89;76.46
29247;BME280;16272;48.188;9.964;2023-05-23T00:14:09;95599.47;;;13.85;76.36
29247;BME280;16272;48.188;9.964;2023-05-23T00:16:34;95597.28;;;13.88;76.01
29247;BME280;16272;48.188;9.964;2023-05-23T00:19:05;95599.28;;;13.63;77.32
29247;BME280;16272;48.188;9.964;2023-05-23T00:21:30;95607.50;;;13.53;78.85
29247;BME280;16272;48.188;9.964;2023-05-23T00:23:57;95605.88;;;13.44;79.23
29247;BME280;16272;48.188;9.964;2023-05-23T00:26:23;95604.09;;;13.36;78.89
29247;BME280;16272;48.188;9.964;2023-05-23T00:28:49;95609.78;;;13.33;79.86
29247;BME280;16272;48.188;9.964;2023-05-23T00:31:16;95609.69;;;13.50;78.92
29247;BME280;16272;48.188;9.964;2023-05-23T00:33:41;95613.63;;;13.62;78.05
29247;BME280;16272;48.188;9.964;2023-05-23T00:36:07;95607.19;;;14.03;75.21
29247;BME280;16272;48.188;9.964;2023-05-23T00:38:33;95601.34;;;14.07;74.22
29247;BME280;16272;48.188;9.964;2023-05-23T00:40:58;95617.22;;;13.77;75.62
29247;BME280;16272;48.188;9.964;2023-05-23T00:43:24;95608.50;;;13.52;77.07
29247;BME280;16272;48.188;9.964;2023-05-23T00:45:50;95606.78;;;13.68;76.61
29247;BME280;16272;48.188;9.964;2023-05-23T00:48:15;95606.22;;;13.72;75.32
29247;BME280;16272;48.188;9.964;2023-05-23T00:50:41;95613.69;;;13.77;75.54
29247;BME280;16272;48.188;9.964;2023-05-23T00:53:07;95610.34;;;13.83;74.72
29247;BME280;16272;48.188;9.964;2023-05-23T00:55:33;95607.84;;;13.50;75.91
29247;BME280;16272;48.188;9.964;2023-05-23T00:57:59;95613.22;;;13.42;76.27
29247;BME280;16272;48.188;9.964;2023-05-23T01:00:25;95610.25;;;13.29;78.35
29247;BME280;16272;48.188;9.964;2023-05-23T01:02:51;95612.44;;;13.25;76.99
29247;BME280;16272;48.188;9.964;2023-05-23T01:05:17;95613.81;;;13.13;78.42
29247;BME280;16272;48.188;9.964;2023-05-23T01:10:10;95607.66;;;13.12;78.37
29247;BME280;16272;48.188;9.964;2023-05-23T01:15:06;95611.94;;;13.21;77.45
29247;BME280;16272;48.188;9.964;2023-05-23T01:20:32;95624.41;;;13.29;77.47
29247;BME280;16272;48.188;9.964;2023-05-23T01:28:16;95631.41;;;13.30;77.51
29247;BME280;16272;48.188;9.964;2023-05-23T01:30:44;95631.81;;;13.11;76.90
29247;BME280;16272;48.188;9.964;2023-05-23T01:33:13;95624.41;;;13.29;77.53
29247;BME280;16272;48.188;9.964;2023-05-23T01:35:41;95627.59;;;13.24;75.56
29247;BME280;16272;48.188;9.964;2023-05-23T01:38:08;95624.00;;;13.01;77.53
29247;BME280;16272;48.188;9.964;2023-05-23T01:40:33;95625.00;;;13.00;77.35
29247;BME280;16272;48.188;9.964;2023-05-23T01:42:59;95623.53;;;12.97;78.91
29247;BME280;16272;48.188;9.964;2023-05-23T01:45:25;95622.66;;;13.05;77.92
29247;BME280;16272;48.188;9.964;2023-05-23T01:47:52;95615.56;;;12.81;79.32
29247;BME280;16272;48.188;9.964;2023-05-23T01:50:18;95616.91;;;12.68;79.88
29247;BME280;16272;48.188;9.964;2023-05-23T01:52:45;95615.38;;;12.91;78.11
29247;BME280;16272;48.188;9.964;2023-05-23T01:55:12;95622.25;;;12.68;78.18
29247;BME280;16272;48.188;9.964;2023-05-23T01:57:39;95624.28;;;12.50;80.22
29247;BME280;16272;48.188;9.964;2023-05-23T02:00:07;95626.59;;;12.61;78.71
29247;BME280;16272;48.188;9.964;2023-05-23T02:02:35;95622.59;;;12.41;81.09
29247;BME280;16272;48.188;9.964;2023-05-23T02:05:00;95628.94;;;12.40;79.93
29247;BME280;16272;48.188;9.964;2023-05-23T02:07:26;95623.63;;;12.40;80.13
29247;BME280;16272;48.188;9.964;2023-05-23T02:09:51;95632.59;;;12.39;78.61
29247;BME280;16272;48.188;9.964;2023-05-23T02:12:16;95626.28;;;12.48;79.54
29247;BME280;16272;48.188;9.964;2023-05-23T02:14:42;95639.59;;;12.56;79.83
29247;BME280;16272;48.188;9.964;2023-05-23T02:17:07;95639.59;;;12.40;80.69
29247;BME280;16272;48.188;9.964;2023-05-23T02:19:36;95644.56;;;12.43;79.77
29247;BME280;16272;48.188;9.964;2023-05-23T02:22:01;95644.22;;;12.71;77.68
29247;BME280;16272;48.188;9.964;2023-05-23T02:24:27;95643.72;;;12.59;78.08
29247;BME280;16272;48.188;9.964;2023-05-23T02:26:55;95645.09;;;12.63;77.42
29247;BME280;16272;48.188;9.964;2023-05-23T02:29:20;95649.25;;;12.32;79.52
29247;BME280;16272;48.188;9.964;2023-05-23T02:31:46;95649.38;;;12.14;80.28
29247;BME280;16272;48.188;9.964;2023-05-23T02:34:11;95653.41;;;12.19;80.47
29247;BME280;16272;48.188;9.964;2023-05-23T02:36:36;95653.22;;;12.12;81.08
29247;BME280;16272;48.188;9.964;2023-05-23T02:39:03;95659.53;;;12.03;80.95
29247;BME280;16272;48.188;9.964;2023-05-23T02:41:29;95650.41;;;12.13;79.89
29247;BME280;16272;48.188;9.964;2023-05-23T02:43:55;95652.16;;;11.88;81.44
29247;BME280;16272;48.188;9.964;2023-05-23T02:46:20;95659.47;;;11.86;82.26
29247;BME280;16272;48.188;9.964;2023-05-23T02:48:45;95659.78;;;11.83;82.33
29247;BME280;16272;48.188;9.964;2023-05-23T02:51:11;95657.75;;;11.69;83.79
29247;BME280;16272;48.188;9.964;2023-05-23T02:53:37;95668.41;;;11.69;82.18
29247;BME280;16272;48.188;9.964;2023-05-23T02:56:03;95662.25;;;11.68;82.69
29247;BME280;16272;48.188;9.964;2023-05-23T02:58:28;95667.28;;;11.88;81.48
29247;BME280;16272;48.188;9.964;2023-05-23T03:00:54;95675.84;;;12.16;80.90
29247;BME280;16272;48.188;9.964;2023-05-23T03:03:19;95674.88;;;12.42;78.58
29247;BME280;16272;48.188;9.964;2023-05-23T03:05:45;95674.53;;;12.04;79.99
29247;BME280;16272;48.188;9.964;2023-05-23T03:08:10;95664.78;;;11.86;81.26
29247;BME280;16272;48.188;9.964;2023-05-23T03:10:36;95659.13;;;11.81;81.79
29247;BME280;16272;48.188;9.964;2023-05-23T03:13:01;95666.94;;;11.83;81.54
29247;BME280;16272;48.188;9.964;2023-05-23T03:15:26;95658.50;;;11.87;80.86
29247;BME280;16272;48.188;9.964;2023-05-23T03:17:52;95660.53;;;12.02;81.09
29247;BME280;16272;48.188;9.964;2023-05-23T03:20:17;95660.50;;;11.93;80.53
29247;BME280;16272;48.188;9.964;2023-05-23T03:22:43;95663.31;;;11.92;81.26
29247;BME280;16272;48.188;9.964;2023-05-23T03:25:09;95657.69;;;11.95;81.15
29247;BME280;16272;48.188;9.964;2023-05-23T03:27:35;95655.81;;;11.87;81.12
29247;BME280;16272;48.188;9.964;2023-05-23T03:30:01;95648.22;;;11.92;80.57
29247;BME280;16272;48.188;9.964;2023-05-23T03:32:27;95655.19;;;11.93;80.52
29247;BME280;16272;48.188;9.964;2023-05-23T03:34:53;95655.56;;;12.07;78.81
29247;BME280;16272;48.188;9.964;2023-05-23T03:37:18;95655.19;;;12.10;79.19
29247;BME280;16272;48.188;9.964;2023-05-23T03:39:45;95655.91;;;12.20;78.77
29247;BME280;16272;48.188;9.964;2023-05-23T03:42:10;95662.22;;;12.11;78.42
29247;BME280;16272;48.188;9.964;2023-05-23T03:44:35;95658.91;;;12.25;77.90
29247;BME280;16272;48.188;9.964;2023-05-23T03:47:00;95663.34;;;12.08;78.10
29247;BME280;16272;48.188;9.964;2023-05-23T03:49:26;95666.47;;;11.87;80.53
29247;BME280;16272;48.188;9.964;2023-05-23T03:51:51;95661.69;;;11.99;79.92
29247;BME280;16272;48.188;9.964;2023-05-23T03:54:16;95659.69;;;11.93;80.70
29247;BME280;16272;48.188;9.964;2023-05-23T03:56:42;95675.19;;;12.06;80.05
29247;BME280;16272;48.188;9.964;2023-05-23T03:59:07;95669.13;;;11.87;80.90
29247;BME280;16272;48.188;9.964;2023-05-23T04:01:33;95666.84;;;12.01;80.84
29247;BME280;16272;48.188;9.964;2023-05-23T04:03:58;95668.75;;;11.82;81.53
29247;BME280;16272;48.188;9.964;2023-05-23T04:06:24;95671.69;;;11.54;82.75
29247;BME280;16272;48.188;9.964;2023-05-23T04:08:50;95662.25;;;11.68;81.97
29247;BME280;16272;48.188;9.964;2023-05-23T04:11:15;95669.84;;;12.06;81.39
29247;BME280;16272;48.188;9.964;2023-05-23T04:13:41;95668.19;;;12.21;80.86
29247;BME280;16272;48.188;9.964;2023-05-23T04:16:06;95662.22;;;12.11;81.44
29247;BME280;16272;48.188;9.964;2023-05-23T04:18:32;95667.38;;;12.37;81.12
29247;BME280;16272;48.188;9.964;2023-05-23T04:20:58;95667.22;;;12.55;79.97
29247;BME280;16272;48.188;9.964;2023-05-23T04:23:23;95670.72;;;12.56;79.59
29247;BME280;16272;48.188;9.964;2023-05-23T04:25:49;95663.56;;;12.64;79.85
29247;BME280;16272;48.188;9.964;2023-05-23T04:28:15;95665.06;;;13.39;77.01
29247;BME280;16272;48.188;9.964;2023-05-23T04:30:43;95661.56;;;13.78;76.04
29247;BME280;16272;48.188;9.964;2023-05-23T04:33:09;95658.94;;;13.70;76.37
29247;BME280;16272;48.188;9.964;2023-05-23T04:35:37;95664.81;;;13.97;75.24
29247;BME280;16272;48.188;9.964;2023-05-23T04:38:04;95673.91;;;13.79;76.19
29247;BME280;16272;48.188;9.964;2023-05-23T04:40:30;95681.94;;;13.79;75.67
29247;BME280;16272;48.188;9.964;2023-05-23T04:42:55;95677.28;;;13.34;78.29
29247;BME280;16272;48.188;9.964;2023-05-23T04:45:22;95683.56;;;13.89;77.10
29247;BME280;16272;48.188;9.964;2023-05-23T04:47:47;95689.19;;;14.48;75.41
29247;BME280;16272;48.188;9.964;2023-05-23T04:50:13;95692.25;;;14.83;75.31
29247;BME280;16272;48.188;9.964;2023-05-23T04:52:43;95689.53;;;14.68;75.44
29247;BME280;16272;48.188;9.964;2023-05-23T04:55:08;95699.13;;;14.63;76.82
29247;BME280;16272;48.188;9.964;2023-05-23T04:57:35;95697.47;;;14.53;76.56
29247;BME280;16272;48.188;9.964;2023-05-23T05:00:00;95701.28;;;14.36;77.43
29247;BME280;16272;48.188;9.964;2023-05-23T05:02:26;95698.03;;;14.72;75.95
29247;BME280;16272;48.188;9.964;2023-05-23T05:04:52;95707.72;;;14.73;77.00
29247;BME280;16272;48.188;9.964;2023-05-23T05:07:17;95711.25;;;14.42;76.67
29247;BME280;16272;48.188;9.964;2023-05-23T05:09:43;95710.84;;;14.53;76.92
29247;BME280;16272;48.188;9.964;2023-05-23T05:12:08;95720.31;;;14.87;76.41
29247;BME280;16272;48.188;9.964;2023-05-23T05:14:33;95711.63;;;14.85;75.81
29247;BME280;16272;48.188;9.964;2023-05-23T05:17:00;95709.41;;;14.43;77.53
29247;BME280;16272;48.188;9.964;2023-05-23T05:19:26;95711.53;;;14.94;77.05
29247;BME280;16272;48.188;9.964;2023-05-23T05:21:52;95715.03;;;15.17;76.35
29247;BME280;16272;48.188;9.964;2023-05-23T05:24:17;95717.94;;;15.07;75.91
29247;BME280;16272;48.188;9.964;2023-05-23T05:26:45;95717.81;;;15.54;75.64
29247;BME280;16272;48.188;9.964;2023-05-23T05:29:10;95713.56;;;15.74;75.81
29247;BME280;16272;48.188;9.964;2023-05-23T05:31:36;95718.72;;;15.46;75.06
29247;BME280;16272;48.188;9.964;2023-05-23T05:34:01;95720.56;;;15.60;75.88
29247;BME280;16272;48.188;9.964;2023-05-23T05:36:26;95710.59;;;15.24;76.93
29247;BME280;16272;48.188;9.964;2023-05-23T05:38:52;95715.22;;;15.90;75.01
29247;BME280;16272;48.188;9.964;2023-05-23T05:41:17;95719.56;;;15.91;75.59
29247;BME280;16272;48.188;9.964;2023-05-23T05:43:42;95712.50;;;16.05;76.61
29247;BME280;16272;48.188;9.964;2023-05-23T05:46:09;95714.72;;;16.53;74.45
29247;BME280;16272;48.188;9.964;2023-05-23T05:48:35;95707.53;;;16.39;75.41
29247;BME280;16272;48.188;9.964;2023-05-23T05:51:00;95708.81;;;16.43;76.08
29247;BME280;16272;48.188;9.964;2023-05-23T05:53:27;95711.78;;;16.69;74.62
29247;BME280;16272;48.188;9.964;2023-05-23T05:55:53;95714.97;;;16.58;75.42
29247;BME280;16272;48.188;9.964;2023-05-23T05:58:18;95711.06;;;16.61;75.70
29247;BME280;16272;48.188;9.964;2023-05-23T06:00:44;95711.13;;;16.67;75.83
29247;BME280;16272;48.188;9.964;2023-05-23T06:03:09;95714.06;;;16.72;75.51
29247;BME280;16272;48.188;9.964;2023-05-23T06:05:35;95723.53;;;17.18;74.34
29247;BME280;16272;48.188;9.964;2023-05-23T06:08:02;95712.75;;;17.12;74.67
29247;BME280;16272;48.188;9.964;2023-05-23T06:10:28;95711.75;;;17.13;74.67
29247;BME280;16272;48.188;9.964;2023-05-23T06:12:54;95715.94;;;17.50;75.57
29247;BME280;16272;48.188;9.964;2023-05-23T06:15:19;95720.63;;;17.76;75.89
29247;BME280;16272;48.188;9.964;2023-05-23T06:17:45;95726.31;;;17.95;75.52
29247;BME280;16272;48.188;9.964;2023-05-23T06:20:10;95726.66;;;17.85;75.53
29247;BME280;16272;48.188;9.964;2023-05-23T06:22:37;95727.78;;;17.91;74.03
29247;BME280;16272;48.188;9.964;2023-05-23T06:25:02;95729.25;;;18.62;73.54
29247;BME280;16272;48.188;9.964;2023-05-23T06:27:28;95732.91;;;18.34;73.40
29247;BME280;16272;48.188;9.964;2023-05-23T06:29:53;95726.81;;;18.87;72.38
29247;BME280;16272;48.188;9.964;2023-05-23T06:32:21;95726.00;;;19.13;70.33
29247;BME280;16272;48.188;9.964;2023-05-23T06:34:46;95725.41;;;19.18;70.99
29247;BME280;16272;48.188;9.964;2023-05-23T06:37:11;95725.19;;;19.06;70.53
29247;BME280;16272;48.188;9.964;2023-05-23T06:39:37;95725.59;;;19.29;69.42
29247;BME280;16272;48.188;9.964;2023-05-23T06:42:02;95740.13;;;19.15;70.23
29247;BME280;16272;48.188;9.964;2023-05-23T06:44:28;95735.91;;;18.79;70.44
29247;BME280;16272;48.188;9.964;2023-05-23T06:46:54;95735.53;;;18.89;70.37
29247;BME280;16272;48.188;9.964;2023-05-23T06:49:22;95731.78;;;18.83;71.00
29247;BME280;16272;48.188;9.964;2023-05-23T06:51:47;95739.00;;;18.63;71.17
29247;BME280;16272;48.188;9.964;2023-05-23T06:54:13;95739.59;;;18.65;70.98
29247;BME280;16272;48.188;9.964;2023-05-23T06:56:39;95739.13;;;18.48;71.42
29247;BME280;16272;48.188;9.964;2023-05-23T06:59:04;95747.75;;;18.30;71.51
29247;BME280;16272;48.188;9.964;2023-05-23T07:01:30;95738.75;;;18.58;71.55
29247;BME280;16272;48.188;9.964;2023-05-23T07:03:55;95744.13;;;18.58;72.09
29247;BME280;16272;48.188;9.964;2023-05-23T07:06:20;95745.34;;;18.48;73.30
29247;BME280;16272;48.188;9.964;2023-05-23T07:08:46;95746.63;;;18.66;73.41
29247;BME280;16272;48.188;9.964;2023-05-23T07:11:11;95751.03;;;18.87;72.19
29247;BME280;16272;48.188;9.964;2023-05-23T07:13:37;95744.59;;;18.68;71.57
29247;BME280;16272;48.188;9.964;2023-05-23T07:16:02;95743.13;;;18.72;71.95
29247;BME280;16272;48.188;9.964;2023-05-23T07:18:27;95744.59;;;18.68;71.33
29247;BME280;16272;48.188;9.964;2023-05-23T07:20:53;95741.56;;;19.11;70.38
29247;BME280;16272;48.188;9.964;2023-05-23T07:23:18;95740.03;;;18.82;70.69
29247;BME280;16272;48.188;9.964;2023-05-23T07:25:44;95738.03;;;19.31;69.37
29247;BME280;16272;48.188;9.964;2023-05-23T07:28:11;95742.16;;;19.53;70.58
29247;BME280;16272;48.188;9.964;2023-05-23T07:30:36;95744.66;;;19.15;68.58
29247;BME280;16272;48.188;9.964;2023-05-23T07:33:01;95748.19;;;19.35;67.78
29247;BME280;16272;48.188;9.964;2023-05-23T07:35:26;95744.00;;;19.53;69.74
29247;BME280;16272;48.188;9.964;2023-05-23T07:37:52;95741.94;;;19.61;68.93
29247;BME280;16272;48.188;9.964;2023-05-23T07:40:18;95734.63;;;19.95;66.89
29247;BME280;16272;48.188;9.964;2023-05-23T07:42:44;95731.78;;;19.77;67.89
29247;BME280;16272;48.188;9.964;2023-05-23T07:45:09;95725.47;;;20.10;66.76
29247;BME280;16272;48.188;9.964;2023-05-23T07:47:35;95730.53;;;19.86;67.65
29247;BME280;16272;48.188;9.964;2023-05-23T07:50:00;95728.72;;;20.25;65.13
29247;BME280;16272;48.188;9.964;2023-05-23T07:52:28;95727.44;;;20.34;64.87
29247;BME280;16272;48.188;9.964;2023-05-23T07:54:54;95731.91;;;20.54;65.23
29247;BME280;16272;48.188;9.964;2023-05-23T07:57:19;95742.94;;;19.87;65.57
29247;BME280;16272;48.188;9.964;2023-05-23T07:59:44;95736.72;;;19.93;66.12
29247;BME280;16272;48.188;9.964;2023-05-23T08:02:10;95744.59;;;19.88;66.75
29247;BME280;16272;48.188;9.964;2023-05-23T08:04:35;95747.94;;;19.83;67.29
29247;BME280;16272;48.188;9.964;2023-05-23T08:07:00;95739.31;;;20.13;65.55
29247;BME280;16272;48.188;9.964;2023-05-23T08:09:26;95738.84;;;19.78;66.31
29247;BME280;16272;48.188;9.964;2023-05-23T08:11:51;95737.84;;;20.24;65.98
29247;BME280;16272;48.188;9.964;2023-05-23T08:14:17;95736.69;;;20.00;66.44
29247;BME280;16272;48.188;9.964;2023-05-23T08:16:42;95728.19;;;21.19;63.53
29247;BME280;16272;48.188;9.964;2023-05-23T08:19:07;95728.59;;;21.41;62.78
29247;BME280;16272;48.188;9.964;2023-05-23T08:21:35;95723.53;;;20.69;63.20
29247;BME280;16272;48.188;9.964;2023-05-23T08:24:00;95716.75;;;21.17;64.52
29247;BME280;16272;48.188;9.964;2023-05-23T08:26:26;95734.56;;;20.99;62.76
29247;BME280;16272;48.188;9.964;2023-05-23T08:28:54;95734.91;;;20.32;66.22
29247;BME280;16272;48.188;9.964;2023-05-23T08:31:20;95732.88;;;20.21;64.68
29247;BME280;16272;48.188;9.964;2023-05-23T08:33:46;95731.59;;;20.30;64.82
29247;BME280;16272;48.188;9.964;2023-05-23T08:36:11;95734.72;;;21.29;63.99
29247;BME280;16272;48.188;9.964;2023-05-23T08:38:36;95740.69;;;21.38;62.09
29247;BME280;16272;48.188;9.964;2023-05-23T08:41:02;95744.72;;;21.79;60.28
29247;BME280;16272;48.188;9.964;2023-05-23T08:43:30;95734.84;;;21.66;60.89
29247;BME280;16272;48.188;9.964;2023-05-23T08:45:56;95740.34;;;21.78;59.82
29247;BME280;16272;48.188;9.964;2023-05-23T08:48:21;95744.78;;;21.91;61.99
29247;BME280;16272;48.188;9.964;2023-05-23T08:50:47;95740.50;;;22.20;60.98
29247;BME280;16272;48.188;9.964;2023-05-23T08:53:17;95736.78;;;21.59;61.36
29247;BME280;16272;48.188;9.964;2023-05-23T08:55:46;95737.97;;;20.88;62.24
29247;BME280;16272;48.188;9.964;2023-05-23T08:58:14;95745.28;;;20.35;63.71
29247;BME280;16272;48.188;9.964;2023-05-23T09:00:41;95743.16;;;20.89;65.05
29247;BME280;16272;48.188;9.964;2023-05-23T09:03:08;95747.94;;;20.81;62.56
29247;BME280;16272;48.188;9.964;2023-05-23T09:05:34;95746.47;;;20.39;64.47
29247;BME280;16272;48.188;9.964;2023-05-23T09:07:59;95751.94;;;20.78;63.69
29247;BME280;16272;48.188;9.964;2023-05-23T09:10:25;95756.97;;;20.16;63.52
29247;BME280;16272;48.188;9.964;2023-05-23T09:12:54;95760.75;;;19.95;65.33
29247;BME280;16272;48.188;9.964;2023-05-23T09:15:19;95751.63;;;20.02;65.92
29247;BME280;16272;48.188;9.964;2023-05-23T09:17:46;95766.81;;;19.63;66.65
29247;BME280;16272;48.188;9.964;2023-05-23T09:20:13;95775.47;;;19.99;66.37
29247;BME280;16272;48.188;9.964;2023-05-23T09:22:39;95769.31;;;20.44;64.70
29247;BME280;16272;48.188;9.964;2023-05-23T09:25:06;95780.28;;;19.63;65.39
29247;BME280;16272;48.188;9.964;2023-05-23T09:27:31;95782.53;;;19.93;66.23
29247;BME280;16272;48.188;9.964;2023-05-23T09:29:57;95766.16;;;20.92;64.21
29247;BME280;16272;48.188;9.964;2023-05-23T09:32:22;95763.34;;;21.12;62.05
29247;BME280;16272;48.188;9.964;2023-05-23T09:34:56;95766.88;;;21.13;60.77
29247;BME280;16272;48.188;9.964;2023-05-23T09:37:28;95755.53;;;20.97;61.24
29247;BME280;16272;48.188;9.964;2023-05-23T09:39:53;95756.13;;;21.31;61.76
29247;BME280;16272;48.188;9.964;2023-05-23T09:42:22;95756.00;;;22.50;59.01
29247;BME280;16272;48.188;9.964;2023-05-23T09:44:48;95756.28;;;22.05;57.51
29247;BME280;16272;48.188;9.964;2023-05-23T09:47:16;95757.38;;;21.79;59.74
29247;BME280;16272;48.188;9.964;2023-05-23T09:49:45;95752.34;;;21.07;60.16
29247;BME280;16272;48.188;9.964;2023-05-23T09:52:11;95751.16;;;21.97;58.67
29247;BME280;16272;48.188;9.964;2023-05-23T09:54:38;95753.47;;;22.98;56.20
29247;BME280;16272;48.188;9.964;2023-05-23T09:57:07;95760.94;;;21.79;58.26
29247;BME280;16272;48.188;9.964;2023-05-23T09:59:34;95748.16;;;21.68;57.68
29247;BME280;16272;48.188;9.964;2023-05-23T10:02:01;95753.44;;;22.00;58.39
29247;BME280;16272;48.188;9.964;2023-05-23T10:04:30;95750.56;;;21.76;57.69
29247;BME280;16272;48.188;9.964;2023-05-23T10:07:09;95751.31;;;21.83;57.88
29247;BME280;16272;48.188;9.964;2023-05-23T10:09:36;95747.72;;;21.90;57.78
29247;BME280;16272;48.188;9.964;2023-05-23T10:12:40;95746.69;;;21.91;58.18
29247;BME280;16272;48.188;9.964;2023-05-23T10:15:03;95739.59;;;22.27;56.05
29247;BME280;16272;48.188;9.964;2023-05-23T10:20:34;95738.72;;;22.33;56.21
29247;BME280;16272;48.188;9.964;2023-05-23T10:23:01;95732.25;;;22.15;57.00
29247;BME280;16272;48.188;9.964;2023-05-23T10:25:27;95741.09;;;21.85;57.06
29247;BME280;16272;48.188;9.964;2023-05-23T10:27:55;95741.59;;;21.76;57.76
29247;BME280;16272;48.188;9.964;2023-05-23T10:30:27;95743.03;;;21.78;58.55
29247;BME280;16272;48.188;9.964;2023-05-23T10:32:53;95746.69;;;21.91;56.63
29247;BME280;16272;48.188;9.964;2023-05-23T10:35:24;95748.97;;;21.87;56.99
29247;BME280;16272;48.188;9.964;2023-05-23T10:38:20;95749.19;;;22.29;56.32
29247;BME280;16272;48.188;9.964;2023-05-23T10:44:01;95739.94;;;22.98;56.51
29247;BME280;16272;48.188;9.964;2023-05-23T10:46:50;95748.03;;;23.40;55.38
29247;BME280;16272;48.188;9.964;2023-05-23T10:49:16;95741.06;;;22.78;55.32
29247;BME280;16272;48.188;9.964;2023-05-23T10:51:42;95741.50;;;22.75;54.91
29247;BME280;16272;48.188;9.964;2023-05-23T10:54:10;95737.25;;;22.79;55.74
29247;BME280;16272;48.188;9.964;2023-05-23T10:56:36;95737.75;;;22.76;54.32
29247;BME280;16272;48.188;9.964;2023-05-23T10:59:04;95739.59;;;22.08;56.96
29247;BME280;16272;48.188;9.964;2023-05-23T11:01:30;95746.19;;;21.94;57.25
29247;BME280;16272;48.188;9.964;2023-05-23T11:03:56;95751.22;;;21.72;57.33
29247;BME280;16272;48.188;9.964;2023-05-23T11:06:38;95752.69;;;21.49;57.26
29247;BME280;16272;48.188;9.964;2023-05-23T11:11:54;95752.19;;;21.59;56.63
29247;BME280;16272;48.188;9.964;2023-05-23T11:14:51;95748.97;;;21.87;55.88
29247;BME280;16272;48.188;9.964;2023-05-23T11:17:24;95746.16;;;21.57;56.83
29247;BME280;16272;48.188;9.964;2023-05-23T11:20:03;95749.44;;;22.21;56.59
29247;BME280;16272;48.188;9.964;2023-05-23T11:22:33;95750.13;;;22.16;56.86
29247;BME280;16272;48.188;9.964;2023-05-23T11:24:59;95756.56;;;23.79;54.65
29247;BME280;16272;48.188;9.964;2023-05-23T11:27:32;95752.63;;;23.16;53.48
29247;BME280;16272;48.188;9.964;2023-05-23T11:30:12;95755.97;;;22.13;57.16
29247;BME280;16272;48.188;9.964;2023-05-23T11:32:37;95746.44;;;22.11;56.39
29247;BME280;16272;48.188;9.964;2023-05-23T11:35:08;95740.69;;;22.74;55.54
29247;BME280;16272;48.188;9.964;2023-05-23T11:37:34;95748.53;;;21.46;57.63
29247;BME280;16272;48.188;9.964;2023-05-23T11:40:32;95748.00;;;21.63;56.94
29247;BME280;16272;48.188;9.964;2023-05-23T11:43:00;95741.31;;;21.40;58.05
29247;BME280;16272;48.188;9.964;2023-05-23T11:45:27;95749.56;;;21.71;57.21
29247;BME280;16272;48.188;9.964;2023-05-23T11:47:53;95744.91;;;22.40;55.09
29247;BME280;16272;48.188;9.964;2023-05-23T11:50:18;95735.69;;;22.23;54.32
29247;BME280;16272;48.188;9.964;2023-05-23T11:52:49;95754.78;;;22.09;54.45
29247;BME280;16272;48.188;9.964;2023-05-23T11:55:21;95739.94;;;22.37;55.25
29247;BME280;16272;48.188;9.964;2023-05-23T11:57:47;95738.63;;;23.30;53.76
29247;BME280;16272;48.188;9.964;2023-05-23T12:00:13;95731.72;;;22.74;53.63
29247;BME280;16272;48.188;9.964;2023-05-23T12:02:43;95734.41;;;23.58;54.31
29247;BME280;16272;48.188;9.964;2023-05-23T12:05:10;95728.59;;;23.43;52.57
29247;BME280;16272;48.188;9.964;2023-05-23T12:07:45;95736.34;;;22.85;54.32
29247;BME280;16272;48.188;9.964;2023-05-23T12:10:11;95731.91;;;22.61;54.36
29247;BME280;16272;48.188;9.964;2023-05-23T12:12:37;95730.53;;;22.70;55.89
29247;BME280;16272;48.188;9.964;2023-05-23T12:15:03;95719.06;;;23.28;52.92
29247;BME280;16272;48.188;9.964;2023-05-23T12:17:29;95726.16;;;23.77;53.99
29247;BME280;16272;48.188;9.964;2023-05-23T12:19:54;95719.78;;;23.47;51.24
29247;BME280;16272;48.188;9.964;2023-05-23T12:22:23;95726.25;;;22.92;52.41
29247;BME280;16272;48.188;9.964;2023-05-23T12:24:52;95726.75;;;22.71;55.46
29247;BME280;16272;48.188;9.964;2023-05-23T12:27:17;95721.72;;;22.26;53.23
29247;BME280;16272;48.188;9.964;2023-05-23T12:29:49;95723.91;;;22.17;53.62
29247;BME280;16272;48.188;9.964;2023-05-23T12:32:15;95733.22;;;22.21;52.40
29247;BME280;16272;48.188;9.964;2023-05-23T12:34:41;95724.34;;;21.95;52.94
29247;BME280;16272;48.188;9.964;2023-05-23T12:37:07;95736.13;;;23.17;53.12
29247;BME280;16272;48.188;9.964;2023-05-23T12:39:35;95728.47;;;22.53;51.51
29247;BME280;16272;48.188;9.964;2023-05-23T12:42:07;95733.00;;;22.23;52.77
29247;BME280;16272;48.188;9.964;2023-05-23T12:44:33;95725.94;;;21.84;53.41
29247;BME280;16272;48.188;9.964;2023-05-23T12:46:59;95730.81;;;22.31;51.99
29247;BME280;16272;48.188;9.964;2023-05-23T12:49:24;95720.69;;;22.45;49.20
29247;BME280;16272;48.188;9.964;2023-05-23T12:51:49;95723.34;;;23.60;51.53
29247;BME280;16272;48.188;9.964;2023-05-23T12:54:16;95721.50;;;22.76;50.15
29247;BME280;16272;48.188;9.964;2023-05-23T12:56:41;95721.44;;;23.84;48.95
29247;BME280;16272;48.188;9.964;2023-05-23T12:59:07;95714.50;;;22.99;51.04
29247;BME280;16272;48.188;9.964;2023-05-23T13:01:33;95713.44;;;23.00;50.04
29247;BME280;16272;48.188;9.964;2023-05-23T13:03:59;95716.25;;;23.94;49.88
29247;BME280;16272;48.188;9.964;2023-05-23T13:06:25;95718.97;;;22.63;50.54
29247;BME280;16272;48.188;9.964;2023-05-23T13:08:51;95713.78;;;22.61;51.47
29247;BME280;16272;48.188;9.964;2023-05-23T13:11:16;95720.56;;;22.82;50.33
29247;BME280;16272;48.188;9.964;2023-05-23T13:13:42;95722.94;;;23.21;48.93
29247;BME280;16272;48.188;9.964;2023-05-23T13:16:07;95715.78;;;22.84;51.71
29247;BME280;16272;48.188;9.964;2023-05-23T13:18:33;95724.44;;;22.74;51.20
29247;BME280;16272;48.188;9.964;2023-05-23T13:20:59;95727.84;;;22.70;52.29